Bellerose Terrace, New York
Current Conditions -  °F | °C
As of 8:51 PM on Thursday 20 Nov 2014 (Local Time) from KJFK Reporting Station
Scattered Clouds Scattered Clouds  
Wind Chill: 28°   Ceiling: Unl
Heat Index: 38°   Visibility: 10mi
Dew Point:   Wind: 21mph
Humidity: 28%   Direction: 290°WNW
Pressure: 29.98"   Gusts: 29mph
Location:  40.7233°N, 73.7034°W
Report Text: KJFK 210151Z 29018G25KT 10SM SCT100 03/M14 A2998 RMK AO2 PK WND 26028/0111 SLP151 T00331139
Loading
Personal Weather Stations






























Interactive Weather Map New forecast layout! Learn more

10-Day Weather Forecast

Advertisements
Track Severe Weather on mobile